sensor_id;sensor_type;location;lat;lon;timestamp;P1;durP1;ratioP1;P2;durP2;ratioP2
7821;SDS011;3956;50.558;9.678;2023-06-14T00:00:40;5.90;;;3.80;;
7821;SDS011;3956;50.558;9.678;2023-06-14T00:03:09;10.53;;;3.80;;
7821;SDS011;3956;50.558;9.678;2023-06-14T00:05:40;6.40;;;3.33;;
7821;SDS011;3956;50.558;9.678;2023-06-14T00:08:09;3.90;;;2.93;;
7821;SDS011;3956;50.558;9.678;2023-06-14T00:10:38;4.60;;;3.50;;
7821;SDS011;3956;50.558;9.678;2023-06-14T00:13:08;10.87;;;4.23;;
7821;SDS011;3956;50.558;9.678;2023-06-14T00:15:37;5.10;;;3.50;;
7821;SDS011;3956;50.558;9.678;2023-06-14T00:18:06;4.97;;;3.43;;
7821;SDS011;3956;50.558;9.678;2023-06-14T00:20:36;4.93;;;3.33;;
7821;SDS011;3956;50.558;9.678;2023-06-14T00:23:05;5.80;;;3.20;;
7821;SDS011;3956;50.558;9.678;2023-06-14T00:25:33;5.53;;;3.60;;
7821;SDS011;3956;50.558;9.678;2023-06-14T00:28:02;4.47;;;3.40;;
7821;SDS011;3956;50.558;9.678;2023-06-14T00:30:30;6.37;;;3.60;;
7821;SDS011;3956;50.558;9.678;2023-06-14T00:32:58;6.57;;;3.70;;
7821;SDS011;3956;50.558;9.678;2023-06-14T00:35:31;4.67;;;3.30;;
7821;SDS011;3956;50.558;9.678;2023-06-14T00:38:26;7.47;;;3.87;;
7821;SDS011;3956;50.558;9.678;2023-06-14T00:40:54;6.50;;;3.40;;
7821;SDS011;3956;50.558;9.678;2023-06-14T00:43:22;5.70;;;3.70;;
7821;SDS011;3956;50.558;9.678;2023-06-14T00:45:50;7.93;;;3.20;;
7821;SDS011;3956;50.558;9.678;2023-06-14T00:48:18;6.07;;;3.67;;
7821;SDS011;3956;50.558;9.678;2023-06-14T00:50:47;7.67;;;3.23;;
7821;SDS011;3956;50.558;9.678;2023-06-14T00:53:16;7.60;;;3.50;;
7821;SDS011;3956;50.558;9.678;2023-06-14T00:55:46;9.13;;;4.33;;
7821;SDS011;3956;50.558;9.678;2023-06-14T00:58:14;7.53;;;3.63;;
7821;SDS011;3956;50.558;9.678;2023-06-14T01:00:43;7.57;;;4.10;;
7821;SDS011;3956;50.558;9.678;2023-06-14T01:03:11;5.40;;;4.00;;
7821;SDS011;3956;50.558;9.678;2023-06-14T01:05:41;6.37;;;3.47;;
7821;SDS011;3956;50.558;9.678;2023-06-14T01:08:13;4.40;;;3.60;;
7821;SDS011;3956;50.558;9.678;2023-06-14T01:10:53;8.00;;;3.63;;
7821;SDS011;3956;50.558;9.678;2023-06-14T01:13:35;5.27;;;3.60;;
7821;SDS011;3956;50.558;9.678;2023-06-14T01:16:06;6.93;;;4.23;;
7821;SDS011;3956;50.558;9.678;2023-06-14T01:18:35;8.50;;;3.87;;
7821;SDS011;3956;50.558;9.678;2023-06-14T01:21:19;4.73;;;3.60;;
7821;SDS011;3956;50.558;9.678;2023-06-14T01:23:59;8.97;;;3.53;;
7821;SDS011;3956;50.558;9.678;2023-06-14T01:26:30;7.97;;;3.60;;
7821;SDS011;3956;50.558;9.678;2023-06-14T01:29:00;6.23;;;4.70;;
7821;SDS011;3956;50.558;9.678;2023-06-14T01:31:28;6.30;;;3.60;;
7821;SDS011;3956;50.558;9.678;2023-06-14T01:34:08;6.27;;;3.67;;
7821;SDS011;3956;50.558;9.678;2023-06-14T01:36:42;4.17;;;3.60;;
7821;SDS011;3956;50.558;9.678;2023-06-14T01:39:14;9.00;;;4.30;;
7821;SDS011;3956;50.558;9.678;2023-06-14T01:41:44;4.47;;;3.80;;
7821;SDS011;3956;50.558;9.678;2023-06-14T01:44:16;8.20;;;3.77;;
7821;SDS011;3956;50.558;9.678;2023-06-14T01:46:45;8.93;;;3.53;;
7821;SDS011;3956;50.558;9.678;2023-06-14T01:49:14;7.47;;;3.40;;
7821;SDS011;3956;50.558;9.678;2023-06-14T01:51:43;5.17;;;3.63;;
7821;SDS011;3956;50.558;9.678;2023-06-14T01:54:12;8.53;;;3.47;;
7821;SDS011;3956;50.558;9.678;2023-06-14T01:56:41;8.40;;;3.67;;
7821;SDS011;3956;50.558;9.678;2023-06-14T01:59:13;6.67;;;3.63;;
7821;SDS011;3956;50.558;9.678;2023-06-14T02:01:42;6.00;;;3.50;;
7821;SDS011;3956;50.558;9.678;2023-06-14T02:04:11;6.57;;;3.63;;
7821;SDS011;3956;50.558;9.678;2023-06-14T02:06:39;5.43;;;4.03;;
7821;SDS011;3956;50.558;9.678;2023-06-14T02:09:07;8.70;;;3.40;;
7821;SDS011;3956;50.558;9.678;2023-06-14T02:11:37;4.90;;;3.50;;
7821;SDS011;3956;50.558;9.678;2023-06-14T02:14:07;5.77;;;3.53;;
7821;SDS011;3956;50.558;9.678;2023-06-14T02:16:38;5.90;;;3.70;;
7821;SDS011;3956;50.558;9.678;2023-06-14T02:19:07;9.00;;;3.90;;
7821;SDS011;3956;50.558;9.678;2023-06-14T02:21:35;6.60;;;3.83;;
7821;SDS011;3956;50.558;9.678;2023-06-14T02:24:03;6.03;;;3.40;;
7821;SDS011;3956;50.558;9.678;2023-06-14T02:26:39;5.23;;;3.90;;
7821;SDS011;3956;50.558;9.678;2023-06-14T02:29:11;6.23;;;4.20;;
7821;SDS011;3956;50.558;9.678;2023-06-14T02:31:51;6.17;;;3.60;;
7821;SDS011;3956;50.558;9.678;2023-06-14T02:34:19;7.73;;;3.77;;
7821;SDS011;3956;50.558;9.678;2023-06-14T02:36:53;11.00;;;3.80;;
7821;SDS011;3956;50.558;9.678;2023-06-14T02:39:24;7.57;;;4.30;;
7821;SDS011;3956;50.558;9.678;2023-06-14T02:41:53;4.90;;;3.60;;
7821;SDS011;3956;50.558;9.678;2023-06-14T02:44:25;7.43;;;3.77;;
7821;SDS011;3956;50.558;9.678;2023-06-14T02:46:54;5.00;;;3.63;;
7821;SDS011;3956;50.558;9.678;2023-06-14T02:49:28;7.53;;;4.17;;
7821;SDS011;3956;50.558;9.678;2023-06-14T02:52:12;6.57;;;4.27;;
7821;SDS011;3956;50.558;9.678;2023-06-14T02:54:41;6.73;;;4.17;;
7821;SDS011;3956;50.558;9.678;2023-06-14T02:57:17;7.10;;;3.70;;
7821;SDS011;3956;50.558;9.678;2023-06-14T02:59:51;6.77;;;3.83;;
7821;SDS011;3956;50.558;9.678;2023-06-14T03:02:19;6.00;;;3.60;;
7821;SDS011;3956;50.558;9.678;2023-06-14T03:04:52;6.23;;;3.87;;
7821;SDS011;3956;50.558;9.678;2023-06-14T03:07:29;6.20;;;3.60;;
7821;SDS011;3956;50.558;9.678;2023-06-14T03:10:00;5.70;;;3.50;;
7821;SDS011;3956;50.558;9.678;2023-06-14T03:12:41;5.47;;;3.77;;
7821;SDS011;3956;50.558;9.678;2023-06-14T03:18:13;8.13;;;3.97;;
7821;SDS011;3956;50.558;9.678;2023-06-14T03:20:46;6.20;;;3.77;;
7821;SDS011;3956;50.558;9.678;2023-06-14T03:23:19;5.87;;;3.60;;
7821;SDS011;3956;50.558;9.678;2023-06-14T03:25:49;6.97;;;3.90;;
7821;SDS011;3956;50.558;9.678;2023-06-14T03:28:18;7.27;;;4.00;;
7821;SDS011;3956;50.558;9.678;2023-06-14T03:30:49;6.90;;;3.87;;
7821;SDS011;3956;50.558;9.678;2023-06-14T03:33:21;9.23;;;4.00;;
7821;SDS011;3956;50.558;9.678;2023-06-14T03:35:55;6.07;;;3.60;;
7821;SDS011;3956;50.558;9.678;2023-06-14T03:38:25;6.73;;;3.73;;
7821;SDS011;3956;50.558;9.678;2023-06-14T03:40:54;8.67;;;4.07;;
7821;SDS011;3956;50.558;9.678;2023-06-14T03:43:24;5.60;;;3.63;;
7821;SDS011;3956;50.558;9.678;2023-06-14T03:45:57;5.57;;;3.80;;
7821;SDS011;3956;50.558;9.678;2023-06-14T03:48:41;7.80;;;4.00;;
7821;SDS011;3956;50.558;9.678;2023-06-14T03:51:15;7.43;;;4.23;;
7821;SDS011;3956;50.558;9.678;2023-06-14T03:53:46;6.30;;;4.13;;
7821;SDS011;3956;50.558;9.678;2023-06-14T03:56:26;5.10;;;3.83;;
7821;SDS011;3956;50.558;9.678;2023-06-14T03:59:00;5.23;;;3.40;;
7821;SDS011;3956;50.558;9.678;2023-06-14T04:01:34;6.20;;;3.80;;
7821;SDS011;3956;50.558;9.678;2023-06-14T04:04:04;8.03;;;4.33;;
7821;SDS011;3956;50.558;9.678;2023-06-14T04:06:34;6.87;;;3.63;;
7821;SDS011;3956;50.558;9.678;2023-06-14T04:09:03;7.77;;;3.60;;
7821;SDS011;3956;50.558;9.678;2023-06-14T04:11:33;6.90;;;3.73;;
7821;SDS011;3956;50.558;9.678;2023-06-14T04:14:17;7.67;;;3.70;;
7821;SDS011;3956;50.558;9.678;2023-06-14T04:17:16;7.20;;;4.17;;
7821;SDS011;3956;50.558;9.678;2023-06-14T04:19:49;6.63;;;3.87;;
7821;SDS011;3956;50.558;9.678;2023-06-14T04:22:26;4.83;;;3.70;;
7821;SDS011;3956;50.558;9.678;2023-06-14T04:24:59;4.63;;;3.57;;
7821;SDS011;3956;50.558;9.678;2023-06-14T04:27:31;5.10;;;3.57;;
7821;SDS011;3956;50.558;9.678;2023-06-14T04:30:04;5.03;;;4.07;;
7821;SDS011;3956;50.558;9.678;2023-06-14T04:32:35;7.00;;;3.97;;
7821;SDS011;3956;50.558;9.678;2023-06-14T04:35:07;7.97;;;3.60;;
7821;SDS011;3956;50.558;9.678;2023-06-14T04:37:35;9.60;;;4.30;;
7821;SDS011;3956;50.558;9.678;2023-06-14T04:40:07;5.47;;;3.60;;
7821;SDS011;3956;50.558;9.678;2023-06-14T04:42:38;6.63;;;3.33;;
7821;SDS011;3956;50.558;9.678;2023-06-14T04:45:11;5.67;;;3.60;;
7821;SDS011;3956;50.558;9.678;2023-06-14T04:47:46;7.27;;;3.73;;
7821;SDS011;3956;50.558;9.678;2023-06-14T04:50:26;9.00;;;3.77;;
7821;SDS011;3956;50.558;9.678;2023-06-14T04:52:56;7.70;;;3.80;;
7821;SDS011;3956;50.558;9.678;2023-06-14T04:55:26;7.40;;;4.00;;
7821;SDS011;3956;50.558;9.678;2023-06-14T04:58:01;6.47;;;3.70;;
7821;SDS011;3956;50.558;9.678;2023-06-14T05:01:13;10.03;;;3.83;;
7821;SDS011;3956;50.558;9.678;2023-06-14T05:03:49;6.90;;;3.97;;
7821;SDS011;3956;50.558;9.678;2023-06-14T05:06:18;6.70;;;3.80;;
7821;SDS011;3956;50.558;9.678;2023-06-14T05:08:51;9.73;;;4.10;;
7821;SDS011;3956;50.558;9.678;2023-06-14T05:11:31;5.60;;;4.30;;
7821;SDS011;3956;50.558;9.678;2023-06-14T05:13:59;7.00;;;4.00;;
7821;SDS011;3956;50.558;9.678;2023-06-14T05:16:27;6.70;;;3.50;;
7821;SDS011;3956;50.558;9.678;2023-06-14T05:19:04;6.73;;;3.60;;
7821;SDS011;3956;50.558;9.678;2023-06-14T05:22:01;4.47;;;3.50;;
7821;SDS011;3956;50.558;9.678;2023-06-14T05:24:31;7.40;;;3.37;;
7821;SDS011;3956;50.558;9.678;2023-06-14T05:27:08;9.20;;;3.70;;
7821;SDS011;3956;50.558;9.678;2023-06-14T05:29:59;6.20;;;3.70;;
7821;SDS011;3956;50.558;9.678;2023-06-14T05:32:35;3.97;;;3.50;;
7821;SDS011;3956;50.558;9.678;2023-06-14T05:39:30;5.27;;;3.50;;
7821;SDS011;3956;50.558;9.678;2023-06-14T05:41:58;6.93;;;3.50;;
7821;SDS011;3956;50.558;9.678;2023-06-14T05:44:27;7.20;;;3.80;;
7821;SDS011;3956;50.558;9.678;2023-06-14T05:47:04;4.53;;;3.67;;
7821;SDS011;3956;50.558;9.678;2023-06-14T05:49:44;7.10;;;3.73;;
7821;SDS011;3956;50.558;9.678;2023-06-14T05:52:58;6.43;;;3.27;;
7821;SDS011;3956;50.558;9.678;2023-06-14T05:55:32;4.63;;;3.70;;
7821;SDS011;3956;50.558;9.678;2023-06-14T05:58:14;11.50;;;4.10;;
7821;SDS011;3956;50.558;9.678;2023-06-14T06:00:46;6.27;;;3.30;;
7821;SDS011;3956;50.558;9.678;2023-06-14T06:03:16;7.00;;;3.70;;
7821;SDS011;3956;50.558;9.678;2023-06-14T06:05:45;6.23;;;3.40;;
7821;SDS011;3956;50.558;9.678;2023-06-14T06:08:15;10.10;;;3.60;;
7821;SDS011;3956;50.558;9.678;2023-06-14T06:10:44;4.00;;;3.03;;
7821;SDS011;3956;50.558;9.678;2023-06-14T06:13:13;4.70;;;3.43;;
7821;SDS011;3956;50.558;9.678;2023-06-14T06:15:42;9.83;;;3.53;;
7821;SDS011;3956;50.558;9.678;2023-06-14T06:18:14;5.50;;;2.87;;
7821;SDS011;3956;50.558;9.678;2023-06-14T06:20:43;4.87;;;3.30;;
7821;SDS011;3956;50.558;9.678;2023-06-14T06:23:14;4.33;;;3.33;;
7821;SDS011;3956;50.558;9.678;2023-06-14T06:25:45;4.47;;;3.23;;
7821;SDS011;3956;50.558;9.678;2023-06-14T06:28:19;6.37;;;3.57;;
7821;SDS011;3956;50.558;9.678;2023-06-14T06:30:48;5.70;;;3.20;;
7821;SDS011;3956;50.558;9.678;2023-06-14T06:33:18;3.43;;;3.00;;
7821;SDS011;3956;50.558;9.678;2023-06-14T06:35:46;4.23;;;3.37;;
7821;SDS011;3956;50.558;9.678;2023-06-14T06:38:26;11.03;;;3.50;;
7821;SDS011;3956;50.558;9.678;2023-06-14T06:41:51;8.63;;;3.53;;
7821;SDS011;3956;50.558;9.678;2023-06-14T06:44:19;4.43;;;3.13;;
7821;SDS011;3956;50.558;9.678;2023-06-14T06:46:54;6.13;;;2.80;;
7821;SDS011;3956;50.558;9.678;2023-06-14T06:49:22;8.07;;;4.03;;
7821;SDS011;3956;50.558;9.678;2023-06-14T06:52:00;4.40;;;2.77;;
7821;SDS011;3956;50.558;9.678;2023-06-14T06:54:39;5.30;;;3.10;;
7821;SDS011;3956;50.558;9.678;2023-06-14T06:57:08;5.87;;;3.30;;
7821;SDS011;3956;50.558;9.678;2023-06-14T06:59:40;6.30;;;3.23;;
7821;SDS011;3956;50.558;9.678;2023-06-14T07:02:08;4.33;;;3.00;;
7821;SDS011;3956;50.558;9.678;2023-06-14T07:04:40;5.20;;;2.87;;
7821;SDS011;3956;50.558;9.678;2023-06-14T07:07:08;5.03;;;3.20;;
7821;SDS011;3956;50.558;9.678;2023-06-14T07:09:54;6.87;;;3.27;;
7821;SDS011;3956;50.558;9.678;2023-06-14T07:13:12;4.47;;;3.30;;
7821;SDS011;3956;50.558;9.678;2023-06-14T07:15:58;3.87;;;3.23;;
7821;SDS011;3956;50.558;9.678;2023-06-14T07:18:43;5.70;;;2.83;;
7821;SDS011;3956;50.558;9.678;2023-06-14T07:21:15;3.60;;;2.60;;
7821;SDS011;3956;50.558;9.678;2023-06-14T07:23:44;4.27;;;3.30;;
7821;SDS011;3956;50.558;9.678;2023-06-14T07:26:12;3.80;;;2.63;;
7821;SDS011;3956;50.558;9.678;2023-06-14T07:28:43;7.43;;;3.40;;
7821;SDS011;3956;50.558;9.678;2023-06-14T07:31:12;4.10;;;2.93;;
7821;SDS011;3956;50.558;9.678;2023-06-14T07:33:41;6.10;;;2.80;;
7821;SDS011;3956;50.558;9.678;2023-06-14T07:36:14;4.03;;;3.07;;
7821;SDS011;3956;50.558;9.678;2023-06-14T07:38:53;4.53;;;3.30;;
7821;SDS011;3956;50.558;9.678;2023-06-14T07:42:02;3.67;;;3.07;;
7821;SDS011;3956;50.558;9.678;2023-06-14T07:44:52;4.37;;;2.87;;
7821;SDS011;3956;50.558;9.678;2023-06-14T07:47:50;4.17;;;2.70;;
7821;SDS011;3956;50.558;9.678;2023-06-14T07:50:39;3.33;;;2.60;;
7821;SDS011;3956;50.558;9.678;2023-06-14T07:53:08;3.50;;;2.80;;
7821;SDS011;3956;50.558;9.678;2023-06-14T07:55:39;3.10;;;2.80;;
7821;SDS011;3956;50.558;9.678;2023-06-14T07:58:21;3.07;;;2.40;;
7821;SDS011;3956;50.558;9.678;2023-06-14T08:01:21;4.90;;;3.03;;
7821;SDS011;3956;50.558;9.678;2023-06-14T08:04:14;4.20;;;2.80;;
7821;SDS011;3956;50.558;9.678;2023-06-14T08:07:02;3.10;;;2.60;;
7821;SDS011;3956;50.558;9.678;2023-06-14T08:09:34;6.53;;;2.60;;
7821;SDS011;3956;50.558;9.678;2023-06-14T08:12:11;5.40;;;2.77;;
7821;SDS011;3956;50.558;9.678;2023-06-14T08:14:42;4.90;;;2.93;;
7821;SDS011;3956;50.558;9.678;2023-06-14T08:17:12;4.10;;;2.80;;
7821;SDS011;3956;50.558;9.678;2023-06-14T08:19:43;2.60;;;2.30;;
7821;SDS011;3956;50.558;9.678;2023-06-14T08:22:53;4.20;;;2.67;;
7821;SDS011;3956;50.558;9.678;2023-06-14T08:25:23;5.37;;;2.80;;
7821;SDS011;3956;50.558;9.678;2023-06-14T08:27:54;7.10;;;2.53;;
7821;SDS011;3956;50.558;9.678;2023-06-14T08:30:48;5.53;;;2.40;;
7821;SDS011;3956;50.558;9.678;2023-06-14T08:33:22;4.20;;;2.57;;
7821;SDS011;3956;50.558;9.678;2023-06-14T08:35:54;3.87;;;2.60;;
7821;SDS011;3956;50.558;9.678;2023-06-14T08:38:22;6.53;;;2.40;;
7821;SDS011;3956;50.558;9.678;2023-06-14T08:40:50;3.17;;;2.20;;
7821;SDS011;3956;50.558;9.678;2023-06-14T08:43:39;4.77;;;2.50;;
7821;SDS011;3956;50.558;9.678;2023-06-14T08:46:20;4.20;;;2.30;;
7821;SDS011;3956;50.558;9.678;2023-06-14T08:49:03;4.10;;;2.20;;
7821;SDS011;3956;50.558;9.678;2023-06-14T08:51:39;4.23;;;2.60;;
7821;SDS011;3956;50.558;9.678;2023-06-14T08:54:08;5.07;;;2.30;;
7821;SDS011;3956;50.558;9.678;2023-06-14T08:56:38;5.53;;;2.57;;
7821;SDS011;3956;50.558;9.678;2023-06-14T08:59:08;3.80;;;2.37;;
7821;SDS011;3956;50.558;9.678;2023-06-14T09:01:39;4.90;;;2.30;;
7821;SDS011;3956;50.558;9.678;2023-06-14T09:04:34;4.63;;;2.50;;
7821;SDS011;3956;50.558;9.678;2023-06-14T09:07:05;4.10;;;2.43;;
7821;SDS011;3956;50.558;9.678;2023-06-14T09:09:38;3.90;;;2.30;;
7821;SDS011;3956;50.558;9.678;2023-06-14T09:12:43;3.57;;;2.40;;
7821;SDS011;3956;50.558;9.678;2023-06-14T09:15:12;3.63;;;2.30;;
7821;SDS011;3956;50.558;9.678;2023-06-14T09:17:44;5.67;;;2.50;;
7821;SDS011;3956;50.558;9.678;2023-06-14T09:20:17;5.38;;;2.50;;
7821;SDS011;3956;50.558;9.678;2023-06-14T09:23:13;5.40;;;2.50;;
7821;SDS011;3956;50.558;9.678;2023-06-14T09:26:21;3.53;;;2.33;;
7821;SDS011;3956;50.558;9.678;2023-06-14T09:29:32;3.43;;;2.20;;
7821;SDS011;3956;50.558;9.678;2023-06-14T09:32:03;4.43;;;2.57;;
7821;SDS011;3956;50.558;9.678;2023-06-14T09:35:07;4.13;;;2.37;;
7821;SDS011;3956;50.558;9.678;2023-06-14T09:37:49;3.60;;;2.37;;
7821;SDS011;3956;50.558;9.678;2023-06-14T09:41:03;4.03;;;2.47;;
7821;SDS011;3956;50.558;9.678;2023-06-14T09:44:50;4.53;;;2.43;;
7821;SDS011;3956;50.558;9.678;2023-06-14T09:48:40;5.07;;;2.50;;
7821;SDS011;3956;50.558;9.678;2023-06-14T09:52:10;5.37;;;2.70;;
7821;SDS011;3956;50.558;9.678;2023-06-14T09:54:47;2.83;;;2.47;;
7821;SDS011;3956;50.558;9.678;2023-06-14T09:57:16;6.50;;;2.50;;
7821;SDS011;3956;50.558;9.678;2023-06-14T09:59:52;3.90;;;2.70;;
7821;SDS011;3956;50.558;9.678;2023-06-14T10:03:00;5.77;;;2.90;;
7821;SDS011;3956;50.558;9.678;2023-06-14T10:05:54;5.53;;;2.50;;
7821;SDS011;3956;50.558;9.678;2023-06-14T10:10:57;3.37;;;2.60;;
7821;SDS011;3956;50.558;9.678;2023-06-14T10:13:26;4.97;;;2.47;;
7821;SDS011;3956;50.558;9.678;2023-06-14T10:16:00;2.93;;;2.47;;
7821;SDS011;3956;50.558;9.678;2023-06-14T10:18:40;5.33;;;2.47;;
7821;SDS011;3956;50.558;9.678;2023-06-14T10:21:18;3.00;;;2.50;;
7821;SDS011;3956;50.558;9.678;2023-06-14T10:24:12;5.10;;;2.40;;
7821;SDS011;3956;50.558;9.678;2023-06-14T10:27:24;6.17;;;2.33;;
7821;SDS011;3956;50.558;9.678;2023-06-14T10:30:06;3.80;;;2.20;;
7821;SDS011;3956;50.558;9.678;2023-06-14T10:33:19;3.40;;;2.40;;
7821;SDS011;3956;50.558;9.678;2023-06-14T10:35:49;3.93;;;2.47;;
7821;SDS011;3956;50.558;9.678;2023-06-14T10:38:35;6.17;;;2.60;;
7821;SDS011;3956;50.558;9.678;2023-06-14T10:41:04;4.30;;;2.83;;
7821;SDS011;3956;50.558;9.678;2023-06-14T10:50:38;4.90;;;2.40;;
7821;SDS011;3956;50.558;9.678;2023-06-14T10:53:42;3.50;;;2.20;;
7821;SDS011;3956;50.558;9.678;2023-06-14T10:56:26;3.70;;;2.30;;
7821;SDS011;3956;50.558;9.678;2023-06-14T10:59:08;4.10;;;2.53;;
7821;SDS011;3956;50.558;9.678;2023-06-14T11:01:38;3.23;;;2.13;;
7821;SDS011;3956;50.558;9.678;2023-06-14T11:04:16;4.67;;;2.53;;
7821;SDS011;3956;50.558;9.678;2023-06-14T11:07:08;5.47;;;2.37;;
7821;SDS011;3956;50.558;9.678;2023-06-14T11:13:42;3.40;;;2.13;;
7821;SDS011;3956;50.558;9.678;2023-06-14T11:16:17;4.50;;;2.50;;
7821;SDS011;3956;50.558;9.678;2023-06-14T11:18:56;2.70;;;2.40;;
7821;SDS011;3956;50.558;9.678;2023-06-14T11:21:33;4.67;;;2.43;;
7821;SDS011;3956;50.558;9.678;2023-06-14T11:24:03;5.33;;;2.93;;
7821;SDS011;3956;50.558;9.678;2023-06-14T11:26:49;2.80;;;2.27;;
7821;SDS011;3956;50.558;9.678;2023-06-14T11:29:39;3.73;;;2.40;;
7821;SDS011;3956;50.558;9.678;2023-06-14T11:32:26;4.60;;;2.37;;
7821;SDS011;3956;50.558;9.678;2023-06-14T11:35:50;3.47;;;2.30;;
7821;SDS011;3956;50.558;9.678;2023-06-14T11:38:22;3.27;;;2.37;;
7821;SDS011;3956;50.558;9.678;2023-06-14T11:41:31;4.80;;;2.33;;
7821;SDS011;3956;50.558;9.678;2023-06-14T11:44:11;4.13;;;2.47;;
7821;SDS011;3956;50.558;9.678;2023-06-14T11:46:53;2.60;;;2.23;;
7821;SDS011;3956;50.558;9.678;2023-06-14T11:49:29;5.53;;;2.60;;
7821;SDS011;3956;50.558;9.678;2023-06-14T11:52:04;2.47;;;2.20;;
7821;SDS011;3956;50.558;9.678;2023-06-14T11:55:02;4.00;;;2.50;;
7821;SDS011;3956;50.558;9.678;2023-06-14T11:58:00;2.53;;;2.10;;
7821;SDS011;3956;50.558;9.678;2023-06-14T12:00:29;5.00;;;2.30;;
7821;SDS011;3956;50.558;9.678;2023-06-14T12:03:16;3.70;;;2.57;;
7821;SDS011;3956;50.558;9.678;2023-06-14T12:05:49;3.33;;;2.30;;
7821;SDS011;3956;50.558;9.678;2023-06-14T12:08:46;2.97;;;2.00;;
7821;SDS011;3956;50.558;9.678;2023-06-14T12:11:39;3.53;;;2.20;;
7821;SDS011;3956;50.558;9.678;2023-06-14T12:14:10;4.60;;;2.50;;
7821;SDS011;3956;50.558;9.678;2023-06-14T12:16:39;4.37;;;2.43;;
7821;SDS011;3956;50.558;9.678;2023-06-14T12:19:11;3.63;;;2.37;;
7821;SDS011;3956;50.558;9.678;2023-06-14T12:21:45;4.87;;;2.27;;
7821;SDS011;3956;50.558;9.678;2023-06-14T12:24:36;3.43;;;2.20;;
7821;SDS011;3956;50.558;9.678;2023-06-14T12:27:05;4.83;;;2.40;;
7821;SDS011;3956;50.558;9.678;2023-06-14T12:30:03;3.80;;;2.53;;
7821;SDS011;3956;50.558;9.678;2023-06-14T12:32:36;3.53;;;2.17;;
7821;SDS011;3956;50.558;9.678;2023-06-14T12:35:07;3.67;;;2.30;;
7821;SDS011;3956;50.558;9.678;2023-06-14T12:37:41;4.77;;;2.37;;
7821;SDS011;3956;50.558;9.678;2023-06-14T12:40:13;3.43;;;2.40;;
7821;SDS011;3956;50.558;9.678;2023-06-14T12:42:49;3.07;;;2.23;;
7821;SDS011;3956;50.558;9.678;2023-06-14T12:45:24;3.00;;;2.10;;
7821;SDS011;3956;50.558;9.678;2023-06-14T12:47:54;5.00;;;2.30;;
7821;SDS011;3956;50.558;9.678;2023-06-14T12:50:33;5.27;;;2.43;;
7821;SDS011;3956;50.558;9.678;2023-06-14T12:53:03;4.07;;;2.10;;
7821;SDS011;3956;50.558;9.678;2023-06-14T12:55:37;2.40;;;1.90;;
7821;SDS011;3956;50.558;9.678;2023-06-14T12:58:55;3.60;;;2.00;;
7821;SDS011;3956;50.558;9.678;2023-06-14T13:02:21;2.03;;;1.83;;
7821;SDS011;3956;50.558;9.678;2023-06-14T13:04:55;2.63;;;1.83;;
7821;SDS011;3956;50.558;9.678;2023-06-14T13:07:31;2.83;;;2.00;;
7821;SDS011;3956;50.558;9.678;2023-06-14T13:10:15;3.03;;;2.10;;
7821;SDS011;3956;50.558;9.678;2023-06-14T13:13:09;3.17;;;2.10;;
7821;SDS011;3956;50.558;9.678;2023-06-14T13:16:13;2.90;;;2.47;;
7821;SDS011;3956;50.558;9.678;2023-06-14T13:18:48;4.93;;;2.50;;
7821;SDS011;3956;50.558;9.678;2023-06-14T13:21:18;3.20;;;2.47;;
7821;SDS011;3956;50.558;9.678;2023-06-14T13:23:50;3.73;;;2.87;;
7821;SDS011;3956;50.558;9.678;2023-06-14T13:26:25;4.33;;;2.87;;
7821;SDS011;3956;50.558;9.678;2023-06-14T13:29:38;2.83;;;2.37;;
7821;SDS011;3956;50.558;9.678;2023-06-14T13:32:36;5.60;;;2.60;;
7821;SDS011;3956;50.558;9.678;2023-06-14T13:36:14;4.87;;;2.60;;
7821;SDS011;3956;50.558;9.678;2023-06-14T13:39:36;4.67;;;2.20;;
7821;SDS011;3956;50.558;9.678;2023-06-14T13:42:50;3.83;;;2.23;;
7821;SDS011;3956;50.558;9.678;2023-06-14T13:46:21;2.77;;;2.30;;
7821;SDS011;3956;50.558;9.678;2023-06-14T13:48:54;2.80;;;2.17;;
7821;SDS011;3956;50.558;9.678;2023-06-14T13:51:31;3.07;;;1.97;;
7821;SDS011;3956;50.558;9.678;2023-06-14T13:54:01;3.50;;;2.10;;
7821;SDS011;3956;50.558;9.678;2023-06-14T13:56:38;5.67;;;2.50;;
7821;SDS011;3956;50.558;9.678;2023-06-14T13:59:41;2.97;;;2.37;;
7821;SDS011;3956;50.558;9.678;2023-06-14T14:02:12;4.23;;;2.37;;
7821;SDS011;3956;50.558;9.678;2023-06-14T14:04:47;2.93;;;2.40;;
7821;SDS011;3956;50.558;9.678;2023-06-14T14:07:31;3.00;;;2.37;;
7821;SDS011;3956;50.558;9.678;2023-06-14T14:10:07;4.47;;;2.23;;
7821;SDS011;3956;50.558;9.678;2023-06-14T14:13:03;4.23;;;2.30;;
7821;SDS011;3956;50.558;9.678;2023-06-14T14:15:31;3.30;;;2.20;;
7821;SDS011;3956;50.558;9.678;2023-06-14T14:18:03;2.43;;;2.17;;
7821;SDS011;3956;50.558;9.678;2023-06-14T14:20:33;7.37;;;2.77;;
7821;SDS011;3956;50.558;9.678;2023-06-14T14:26:17;3.33;;;2.50;;
7821;SDS011;3956;50.558;9.678;2023-06-14T14:29:17;2.93;;;2.50;;
7821;SDS011;3956;50.558;9.678;2023-06-14T14:32:04;4.43;;;2.40;;
7821;SDS011;3956;50.558;9.678;2023-06-14T14:34:41;3.03;;;2.27;;
7821;SDS011;3956;50.558;9.678;2023-06-14T14:37:17;3.17;;;2.13;;
7821;SDS011;3956;50.558;9.678;2023-06-14T14:40:22;4.73;;;2.77;;
7821;SDS011;3956;50.558;9.678;2023-06-14T14:43:24;5.70;;;2.30;;
7821;SDS011;3956;50.558;9.678;2023-06-14T14:46:02;3.67;;;2.20;;
7821;SDS011;3956;50.558;9.678;2023-06-14T14:48:46;3.90;;;2.20;;
7821;SDS011;3956;50.558;9.678;2023-06-14T14:51:21;3.43;;;2.50;;
7821;SDS011;3956;50.558;9.678;2023-06-14T14:53:52;4.40;;;2.03;;
7821;SDS011;3956;50.558;9.678;2023-06-14T14:57:06;3.90;;;2.40;;
7821;SDS011;3956;50.558;9.678;2023-06-14T14:59:38;4.00;;;2.07;;
7821;SDS011;3956;50.558;9.678;2023-06-14T15:02:29;2.73;;;2.47;;
7821;SDS011;3956;50.558;9.678;2023-06-14T15:05:41;3.57;;;2.37;;
7821;SDS011;3956;50.558;9.678;2023-06-14T15:08:13;5.17;;;2.40;;
7821;SDS011;3956;50.558;9.678;2023-06-14T15:10:46;3.10;;;2.60;;
7821;SDS011;3956;50.558;9.678;2023-06-14T15:14:01;3.03;;;2.27;;
7821;SDS011;3956;50.558;9.678;2023-06-14T15:16:37;4.33;;;2.03;;
7821;SDS011;3956;50.558;9.678;2023-06-14T15:20:10;2.73;;;2.30;;
7821;SDS011;3956;50.558;9.678;2023-06-14T15:22:57;4.67;;;2.40;;
7821;SDS011;3956;50.558;9.678;2023-06-14T15:25:26;5.93;;;2.20;;
7821;SDS011;3956;50.558;9.678;2023-06-14T15:27:56;5.40;;;2.57;;
7821;SDS011;3956;50.558;9.678;2023-06-14T15:30:26;5.77;;;2.40;;
7821;SDS011;3956;50.558;9.678;2023-06-14T15:32:54;3.10;;;2.40;;
7821;SDS011;3956;50.558;9.678;2023-06-14T15:35:26;6.97;;;3.10;;
7821;SDS011;3956;50.558;9.678;2023-06-14T15:38:08;4.13;;;2.03;;
7821;SDS011;3956;50.558;9.678;2023-06-14T15:40:43;5.00;;;2.13;;
7821;SDS011;3956;50.558;9.678;2023-06-14T15:43:17;3.80;;;2.50;;
7821;SDS011;3956;50.558;9.678;2023-06-14T15:45:48;4.87;;;2.90;;
7821;SDS011;3956;50.558;9.678;2023-06-14T15:48:17;5.83;;;2.90;;
7821;SDS011;3956;50.558;9.678;2023-06-14T15:51:15;4.10;;;2.50;;
7821;SDS011;3956;50.558;9.678;2023-06-14T15:54:37;3.73;;;2.30;;
7821;SDS011;3956;50.558;9.678;2023-06-14T15:57:53;3.27;;;2.27;;
7821;SDS011;3956;50.558;9.678;2023-06-14T16:00:23;5.80;;;2.50;;
7821;SDS011;3956;50.558;9.678;2023-06-14T16:03:03;3.93;;;2.50;;
7821;SDS011;3956;50.558;9.678;2023-06-14T16:05:35;4.60;;;2.70;;
7821;SDS011;3956;50.558;9.678;2023-06-14T16:08:11;3.50;;;2.60;;
7821;SDS011;3956;50.558;9.678;2023-06-14T16:11:06;4.97;;;2.40;;
7821;SDS011;3956;50.558;9.678;2023-06-14T16:13:48;5.73;;;2.60;;
7821;SDS011;3956;50.558;9.678;2023-06-14T16:16:58;2.73;;;2.30;;
7821;SDS011;3956;50.558;9.678;2023-06-14T16:19:53;2.40;;;2.07;;
7821;SDS011;3956;50.558;9.678;2023-06-14T16:26:14;3.20;;;2.30;;
7821;SDS011;3956;50.558;9.678;2023-06-14T16:29:06;3.70;;;2.43;;
7821;SDS011;3956;50.558;9.678;2023-06-14T16:31:51;2.73;;;2.43;;
7821;SDS011;3956;50.558;9.678;2023-06-14T16:34:52;4.63;;;2.53;;
7821;SDS011;3956;50.558;9.678;2023-06-14T16:38:28;4.60;;;2.80;;
7821;SDS011;3956;50.558;9.678;2023-06-14T16:41:35;3.53;;;2.53;;
7821;SDS011;3956;50.558;9.678;2023-06-14T16:44:07;3.87;;;2.40;;
7821;SDS011;3956;50.558;9.678;2023-06-14T16:46:38;4.20;;;2.77;;
7821;SDS011;3956;50.558;9.678;2023-06-14T16:49:06;3.30;;;2.53;;
7821;SDS011;3956;50.558;9.678;2023-06-14T16:51:34;3.37;;;2.47;;
7821;SDS011;3956;50.558;9.678;2023-06-14T16:54:04;4.03;;;2.40;;
7821;SDS011;3956;50.558;9.678;2023-06-14T16:56:34;6.33;;;2.67;;
7821;SDS011;3956;50.558;9.678;2023-06-14T16:59:04;4.47;;;2.50;;